createdAt,value
2022-10-17T00:03:49.040Z,1.41
2022-10-17T00:18:48.814Z,1.17
2022-10-17T00:33:48.594Z,1.08
2022-10-17T00:48:49.181Z,0.92
2022-10-17T01:03:50.698Z,1.14
2022-10-17T01:18:48.961Z,1.04
2022-10-17T01:33:48.619Z,0.79
2022-10-17T01:48:48.773Z,1.1
2022-10-17T02:03:48.571Z,0.85
2022-10-17T02:18:48.591Z,1.06
2022-10-17T02:33:48.535Z,0.68
2022-10-17T02:48:48.635Z,0.81
2022-10-17T03:03:48.669Z,0.92
2022-10-17T03:18:49.408Z,0.82
2022-10-17T03:33:48.806Z,0.75
2022-10-17T03:48:49.048Z,0.92
2022-10-17T04:03:49.215Z,1.27
2022-10-17T04:18:48.632Z,1.27
2022-10-17T04:33:48.888Z,1.23
2022-10-17T04:48:49.091Z,1.36
2022-10-17T05:18:52.494Z,2.25
2022-10-17T05:33:48.845Z,4.04
2022-10-17T05:48:49.274Z,2.25
2022-10-17T06:03:48.839Z,1.86
2022-10-17T06:33:48.949Z,3.73
2022-10-17T06:48:49.241Z,5.75
2022-10-17T07:03:48.972Z,1.81
2022-10-17T07:18:48.624Z,0.83
2022-10-17T07:33:48.936Z,0.99
2022-10-17T07:48:49.107Z,1.49
2022-10-17T08:03:48.678Z,1.07
2022-10-17T08:33:49.007Z,0.4
2022-10-17T08:48:49.258Z,0.41
2022-10-17T09:03:48.815Z,0.31
2022-10-17T09:18:49.074Z,0.2
2022-10-17T09:33:54.135Z,0.16
2022-10-17T10:03:49.547Z,0.19
2022-10-17T10:18:50.207Z,0.05
2022-10-17T10:48:49.946Z,0.48
2022-10-17T13:33:49.532Z,0.91
2022-10-17T14:03:54.127Z,7.6
2022-10-17T14:33:50.398Z,0.72
2022-10-17T14:48:49.166Z,1.13
2022-10-17T15:03:48.976Z,1.09
2022-10-17T15:18:48.881Z,1.95
2022-10-17T15:33:48.907Z,1.15
2022-10-17T15:48:48.759Z,1.38
2022-10-17T16:03:49.306Z,2.25
2022-10-17T16:18:49.299Z,2.78
2022-10-17T16:33:49.039Z,5.53
2022-10-17T16:48:49.178Z,7.53
2022-10-17T17:03:49.289Z,16.22
2022-10-17T17:18:49.546Z,13.75
2022-10-17T17:33:48.658Z,30.53
2022-10-17T17:48:49.223Z,10.42
2022-10-17T18:03:49.353Z,14.75
2022-10-17T18:18:49.300Z,13.96
2022-10-17T18:33:49.303Z,8.32
2022-10-17T18:48:49.433Z,4.06
2022-10-17T19:18:49.152Z,7.16
2022-10-17T19:33:49.246Z,6.68
2022-10-17T19:48:48.966Z,6.62
2022-10-17T20:03:49.353Z,6.75
2022-10-17T20:18:49.092Z,5
2022-10-17T20:33:48.885Z,7.05
2022-10-17T20:48:49.397Z,5.14
2022-10-17T21:03:49.003Z,5.31
2022-10-17T21:18:48.926Z,6.9
2022-10-17T21:33:48.916Z,5.57
2022-10-17T21:48:49.343Z,6.06
2022-10-17T22:03:49.132Z,3.94
2022-10-17T22:33:49.155Z,2.55
2022-10-17T22:48:49.881Z,10.77
2022-10-17T23:03:49.295Z,4.04
2022-10-17T23:18:48.544Z,2.74
2022-10-17T23:33:48.646Z,2.44
2022-10-17T23:48:49.037Z,2.3
